Terminal Aerodrome Forecast
Issued by NWS

Home | Current Version | Previous Version | Text Only | Print | Product List | Glossary On
Versions: 1 2 3 4 5 6 7 8 9 10 11 12 13 14
000
FTUS41 KPHI 241749
TAFPNE
TAF
KPNE 241749Z 2418/2518 20006KT P6SM FEW070 BKN250
     FM241900 24006KT P6SM SCT250
     FM250000 17009KT P6SM SCT250
     FM250200 20004KT P6SM SCT150 BKN250
      TEMPO 2507/2511 6SM -SHRA OVC060
     FM251100 23005KT P6SM BKN060 OVC150
     FM251400 27008KT P6SM SCT070 BKN150=

USA.gov is the U.S. government's official web portal to all federal, state and local government web resources and services.